Time;durP1;ratioP1;P1;durP2;ratioP2;P2;SDS_P1;SDS_P2;PMS_P1;PMS_P2;Temp;Humidity;BMP_temperature;BMP_pressure;BME280_temperature;BME280_humidity;BME280_pressure;Samples;Min_cycle;Max_cycle;Signal;HPM_P1;HPM_P2
2021/08/18 00:02:23;;;;;;;1.45;0.90;;;;;;;20.88;58.15;101550.47;5052069;28;20029;-61
2021/08/18 00:04:49;;;;;;;1.42;0.90;;;;;;;20.88;58.27;101551.31;5051992;28;20029;-61
2021/08/18 00:07:14;;;;;;;1.83;0.80;;;;;;;20.86;58.18;101552.41;5051512;28;20025;-62
2021/08/18 00:09:42;;;;;;;1.38;0.80;;;;;;;20.87;58.26;101547.00;5052146;28;20017;-62
2021/08/18 00:12:07;;;;;;;2.15;1.00;;;;;;;20.87;58.26;101544.34;5051611;28;20025;-62
2021/08/18 00:14:34;;;;;;;1.85;0.85;;;;;;;20.84;58.15;101540.13;5050985;28;20425;-62
2021/08/18 00:17:00;;;;;;;3.88;1.00;;;;;;;20.84;58.16;101544.59;5051439;28;20717;-62
2021/08/18 00:19:26;;;;;;;2.33;1.08;;;;;;;20.86;58.28;101542.66;5052111;28;20067;-62
2021/08/18 00:21:51;;;;;;;1.87;1.00;;;;;;;20.86;58.27;101545.28;5051126;28;20469;-62
2021/08/18 00:24:16;;;;;;;1.07;0.70;;;;;;;20.86;58.19;101544.47;5052265;28;20266;-62
2021/08/18 00:26:42;;;;;;;2.08;1.00;;;;;;;20.84;58.18;101542.78;5054024;28;20262;-63
2021/08/18 00:29:07;;;;;;;2.10;1.10;;;;;;;20.82;58.27;101539.41;5054836;28;20037;-62
2021/08/18 00:31:32;;;;;;;1.80;1.00;;;;;;;20.83;58.18;101541.06;5055948;28;20025;-62
2021/08/18 00:33:58;;;;;;;1.83;1.00;;;;;;;20.84;58.40;101531.34;5055383;28;20029;-62
2021/08/18 00:36:23;;;;;;;2.38;1.00;;;;;;;20.82;58.08;101539.41;5054802;28;20024;-61
2021/08/18 00:38:48;;;;;;;1.53;0.90;;;;;;;20.83;58.26;101538.44;5055284;28;20521;-62
2021/08/18 00:41:13;;;;;;;2.03;0.90;;;;;;;20.83;58.29;101543.72;5055594;28;20554;-61
2021/08/18 00:43:39;;;;;;;1.70;0.90;;;;;;;20.83;58.32;101540.25;5054560;28;20278;-61
2021/08/18 00:46:05;;;;;;;1.50;0.88;;;;;;;20.83;58.27;101538.44;5054986;28;20273;-61
2021/08/18 00:48:31;;;;;;;2.78;1.10;;;;;;;20.83;58.23;101540.25;5055102;28;20380;-61
2021/08/18 00:50:56;;;;;;;1.38;0.77;;;;;;;20.82;58.28;101538.56;5054093;28;20129;-61
2021/08/18 00:53:21;;;;;;;1.63;0.80;;;;;;;20.80;58.48;101529.91;5055257;28;20032;-61
2021/08/18 00:55:46;;;;;;;1.55;0.82;;;;;;;20.78;58.35;101531.84;5054819;28;20076;-61
2021/08/18 00:58:12;;;;;;;1.17;0.77;;;;;;;20.82;58.32;101538.56;5054292;28;20039;-61
2021/08/18 01:00:40;;;;;;;2.08;1.00;;;;;;;20.80;58.33;101541.31;5055042;28;20035;-61
2021/08/18 01:03:06;;;;;;;1.48;0.90;;;;;;;20.79;58.32;101534.38;5054093;28;20025;-62
2021/08/18 01:05:31;;;;;;;2.65;0.90;;;;;;;20.80;58.26;101530.72;5054978;28;20082;-61
2021/08/18 01:07:58;;;;;;;2.75;0.90;;;;;;;20.81;58.32;101534.25;5054518;28;20120;-61
2021/08/18 01:10:27;;;;;;;2.83;0.98;;;;;;;20.79;58.42;101536.16;5054101;28;20048;-62
2021/08/18 01:12:54;;;;;;;2.15;0.93;;;;;;;20.79;58.29;101537.00;5054575;28;20029;-61
2021/08/18 01:15:21;;;;;;;1.10;0.70;;;;;;;20.79;58.43;101539.66;5054709;28;20074;-61
2021/08/18 01:17:50;;;;;;;1.98;0.82;;;;;;;20.80;58.29;101540.50;5053462;28;20028;-62
2021/08/18 01:20:19;;;;;;;1.85;0.80;;;;;;;20.80;58.40;101543.97;5054811;28;20143;-61
2021/08/18 01:22:45;;;;;;;1.70;0.85;;;;;;;20.79;58.47;101542.31;5054492;28;20139;-61
2021/08/18 01:25:11;;;;;;;1.88;0.85;;;;;;;20.79;58.28;101538.81;5053912;28;20025;-61
2021/08/18 01:27:43;;;;;;;2.45;1.10;;;;;;;20.76;58.32;101525.81;5054472;28;20029;-62
2021/08/18 01:30:10;;;;;;;2.05;0.90;;;;;;;20.79;58.40;101538.81;5054598;28;20029;-61
2021/08/18 01:32:50;;;;;;;2.28;1.05;;;;;;;20.79;58.27;101536.16;5053829;28;20024;-61
2021/08/18 01:35:19;;;;;;;2.45;1.00;;;;;;;20.77;58.39;101538.09;5054395;28;20381;-62
2021/08/18 01:37:45;;;;;;;2.40;1.00;;;;;;;20.77;58.16;101541.56;5053330;28;20079;-62
2021/08/18 01:40:10;;;;;;;1.40;0.90;;;;;;;20.77;58.39;101544.22;5053488;28;20013;-62
2021/08/18 01:42:38;;;;;;;1.55;0.90;;;;;;;20.77;58.37;101540.75;5054122;28;20489;-62
2021/08/18 01:45:04;;;;;;;1.88;1.00;;;;;;;20.77;58.39;101541.56;5054314;28;20372;-62
2021/08/18 01:47:29;;;;;;;1.70;0.77;;;;;;;20.76;58.37;101537.25;5053583;28;20381;-62
2021/08/18 01:49:54;;;;;;;1.27;0.80;;;;;;;20.77;58.50;101540.75;5053465;28;20045;-62
2021/08/18 01:52:20;;;;;;;1.98;0.90;;;;;;;20.76;58.41;101539.91;5053468;28;20099;-62
2021/08/18 01:54:45;;;;;;;1.42;0.80;;;;;;;20.75;58.44;101535.56;5053758;28;20033;-62
2021/08/18 01:57:10;;;;;;;2.42;1.00;;;;;;;20.75;58.44;101540.88;5054153;28;20376;-62
2021/08/18 01:59:35;;;;;;;1.70;0.90;;;;;;;20.73;58.60;101529.56;5053613;28;20451;-61
2021/08/18 02:02:01;;;;;;;2.13;0.93;;;;;;;20.74;58.59;101536.53;5053800;28;20363;-62
2021/08/18 02:04:29;;;;;;;1.70;0.90;;;;;;;20.75;58.37;101540.88;5053929;28;20273;-61
2021/08/18 02:06:54;;;;;;;1.77;0.95;;;;;;;20.74;58.43;101541.81;5052849;28;20262;-61
2021/08/18 02:09:19;;;;;;;1.67;1.00;;;;;;;20.74;58.39;101536.53;5053730;28;20433;-61
2021/08/18 02:11:54;;;;;;;2.93;0.97;;;;;;;20.75;58.43;101535.56;5053644;28;20040;-61
2021/08/18 02:14:19;;;;;;;1.90;1.00;;;;;;;20.74;58.55;101536.53;5053342;28;20289;-62
2021/08/18 02:16:44;;;;;;;1.60;0.90;;;;;;;20.74;58.60;101531.22;5053358;28;20029;-62
2021/08/18 02:19:18;;;;;;;2.67;1.10;;;;;;;20.74;58.62;101538.34;5053704;28;20029;-61
2021/08/18 02:21:44;;;;;;;1.63;0.90;;;;;;;20.73;58.45;101534.88;5052568;28;20266;-61
2021/08/18 02:24:09;;;;;;;1.60;0.75;;;;;;;20.73;58.42;101540.16;5053787;28;20040;-60
2021/08/18 02:26:34;;;;;;;1.55;0.80;;;;;;;20.74;58.52;101533.03;5053743;28;20021;-61
2021/08/18 02:28:59;;;;;;;3.65;1.00;;;;;;;20.73;58.49;101534.88;5052462;28;20421;-61
2021/08/18 02:31:27;;;;;;;3.53;1.10;;;;;;;20.73;58.39;101532.22;5053377;28;20028;-61
2021/08/18 02:33:53;;;;;;;3.13;1.10;;;;;;;20.73;58.53;101531.34;5052974;28;20777;-61
2021/08/18 02:36:18;;;;;;;1.77;0.98;;;;;;;20.72;58.42;101533.16;5052399;28;20029;-61
2021/08/18 02:38:43;;;;;;;2.53;0.90;;;;;;;20.72;58.43;101527.03;5053146;28;20025;-63
2021/08/18 02:41:11;;;;;;;2.13;0.90;;;;;;;20.72;58.34;101530.53;5053374;28;20029;-61
2021/08/18 02:43:37;;;;;;;1.83;0.93;;;;;;;20.72;58.75;101527.88;5052781;28;20021;-61
2021/08/18 02:46:08;;;;;;;1.50;0.90;;;;;;;20.72;58.58;101530.53;5053009;28;20381;-61
2021/08/18 02:48:33;;;;;;;2.30;0.90;;;;;;;20.72;58.56;101527.03;5052034;28;20021;-62
2021/08/18 02:50:58;;;;;;;1.37;0.87;;;;;;;20.70;58.37;101526.34;5052622;28;20055;-61
2021/08/18 02:53:24;;;;;;;1.20;0.80;;;;;;;20.71;58.40;101528.84;5053332;28;20270;-62
2021/08/18 02:55:50;;;;;;;2.20;1.08;;;;;;;20.71;58.49;101522.69;5051946;28;20266;-62
2021/08/18 02:58:16;;;;;;;2.33;1.00;;;;;;;20.69;58.48;101519.34;5052974;28;20032;-62
2021/08/18 03:00:42;;;;;;;2.55;1.10;;;;;;;20.71;58.55;101518.25;5053126;28;20083;-61
2021/08/18 03:03:07;;;;;;;1.53;0.80;;;;;;;20.71;58.46;101522.69;5051979;28;20377;-61
2021/08/18 03:05:32;;;;;;;2.33;0.98;;;;;;;20.70;58.60;101524.53;5052719;28;20274;-61
2021/08/18 03:07:58;;;;;;;1.85;0.80;;;;;;;20.69;58.68;101517.53;5052782;28;20033;-61
2021/08/18 03:10:23;;;;;;;1.60;0.85;;;;;;;20.69;58.62;101519.34;5052256;28;20086;-61
2021/08/18 03:12:51;;;;;;;1.65;0.95;;;;;;;20.69;58.66;101522.81;5052681;28;20358;-62
2021/08/18 03:15:16;;;;;;;1.75;0.90;;;;;;;20.68;58.61;101515.88;5052739;28;20397;-62
2021/08/18 03:17:41;;;;;;;3.17;1.00;;;;;;;20.68;58.51;101526.47;5052141;28;20025;-61
2021/08/18 03:20:08;;;;;;;3.67;1.00;;;;;;;20.69;58.68;101529.94;5052354;28;20815;-61
2021/08/18 03:22:34;;;;;;;2.80;0.98;;;;;;;20.68;58.59;101526.47;5052631;28;20534;-61
2021/08/18 03:25:02;;;;;;;2.38;1.00;;;;;;;20.67;58.63;101524.75;5051764;28;20031;-61
2021/08/18 03:27:27;;;;;;;1.77;0.93;;;;;;;20.68;58.55;101533.53;5052772;28;20078;-61
2021/08/18 03:29:56;;;;;;;1.40;0.80;;;;;;;20.60;58.64;101515.59;5052501;28;20036;-61
2021/08/18 03:32:21;;;;;;;1.70;1.00;;;;;;;20.67;58.67;101532.72;5051830;28;20266;-61
2021/08/18 03:34:46;;;;;;;3.20;1.30;;;;;;;20.67;58.62;101527.41;5052171;28;20033;-61
2021/08/18 03:37:12;;;;;;;1.30;0.80;;;;;;;20.66;58.54;101531.00;5052858;28;20028;-61
2021/08/18 03:39:37;;;;;;;1.63;0.90;;;;;;;20.67;58.59;101532.72;5051969;28;20150;-61
2021/08/18 03:42:05;;;;;;;1.33;0.70;;;;;;;20.67;58.67;101540.66;5052453;28;20033;-61
2021/08/18 03:44:30;;;;;;;1.60;0.90;;;;;;;20.67;58.64;101534.53;5052929;28;20328;-61
2021/08/18 03:46:56;;;;;;;2.00;0.90;;;;;;;20.67;58.69;101530.06;5051859;28;20025;-62
2021/08/18 03:49:21;;;;;;;1.63;0.90;;;;;;;20.63;58.42;101534.75;5052295;28;20049;-62
2021/08/18 03:51:46;;;;;;;1.77;1.08;;;;;;;20.65;58.69;101529.34;5051029;28;20477;-61
2021/08/18 03:54:11;;;;;;;2.17;1.10;;;;;;;20.65;58.54;101530.19;5052293;28;20175;-61
2021/08/18 03:56:37;;;;;;;1.90;0.93;;;;;;;20.62;58.64;101522.47;5052431;28;20036;-61
2021/08/18 03:59:02;;;;;;;1.63;0.80;;;;;;;20.65;58.72;101527.53;5051475;28;20025;-61
2021/08/18 04:01:27;;;;;;;1.83;1.00;;;;;;;20.64;58.45;101522.38;5052935;28;20491;-61
2021/08/18 04:03:52;;;;;;;1.52;0.88;;;;;;;20.64;58.39;101517.91;5055567;28;20321;-61
2021/08/18 04:06:18;;;;;;;1.13;0.75;;;;;;;20.64;58.63;101520.53;5055369;28;20131;-61
2021/08/18 04:08:43;;;;;;;1.77;0.80;;;;;;;20.64;58.34;101519.72;5055857;28;20028;-61
2021/08/18 04:11:09;;;;;;;1.48;0.82;;;;;;;20.64;58.60;101522.38;5056223;28;20262;-61
2021/08/18 04:13:36;;;;;;;2.05;1.00;;;;;;;20.60;58.72;101519.09;5055357;28;20100;-60
2021/08/18 04:16:02;;;;;;;1.83;0.90;;;;;;;20.62;58.95;101526.91;5055650;28;20028;-60
2021/08/18 04:18:27;;;;;;;2.78;1.10;;;;;;;20.63;58.72;101529.44;5056051;28;20036;-61
2021/08/18 04:20:52;;;;;;;2.03;1.00;;;;;;;20.63;58.65;101525.94;5054867;28;20025;-61
2021/08/18 04:23:17;;;;;;;2.10;0.88;;;;;;;20.63;58.97;101528.59;5055846;28;20527;-61
2021/08/18 04:25:43;;;;;;;1.52;0.80;;;;;;;20.61;58.47;101519.94;5055611;28;20033;-61
2021/08/18 04:28:08;;;;;;;3.53;1.00;;;;;;;20.63;58.72;101523.28;5054929;28;20017;-62
2021/08/18 04:30:33;;;;;;;1.63;0.90;;;;;;;20.63;58.50;101528.59;5055704;28;20021;-62
2021/08/18 04:32:59;;;;;;;1.77;0.85;;;;;;;20.61;58.85;101530.53;5055437;28;20055;-62
2021/08/18 04:35:24;;;;;;;2.33;1.00;;;;;;;20.61;58.65;101531.34;5055085;28;20063;-62
2021/08/18 04:37:50;;;;;;;3.13;1.10;;;;;;;20.60;58.62;101528.84;5055452;28;20266;-62
2021/08/18 04:40:21;;;;;;;1.85;1.00;;;;;;;20.61;58.78;101528.72;5055811;28;20036;-62
2021/08/18 04:42:52;;;;;;;2.00;1.00;;;;;;;20.62;58.71;101534.88;5054445;28;20060;-62
2021/08/18 04:45:18;;;;;;;1.55;0.95;;;;;;;20.61;58.69;101527.88;5055523;28;20036;-62
2021/08/18 04:47:44;;;;;;;2.55;1.10;;;;;;;20.59;58.58;101525.34;5055194;28;20021;-62
2021/08/18 04:50:17;;;;;;;1.83;1.10;;;;;;;20.60;58.79;101532.34;5054315;28;20041;-62
2021/08/18 04:52:46;;;;;;;1.65;0.90;;;;;;;20.58;58.54;101526.31;5055472;28;20083;-62
2021/08/18 04:55:14;;;;;;;2.65;0.90;;;;;;;20.61;58.83;101531.34;5053953;28;20119;-61
2021/08/18 04:57:39;;;;;;;2.58;0.80;;;;;;;20.60;58.88;101524.41;5055489;28;20107;-62
2021/08/18 05:00:05;;;;;;;2.53;1.17;;;;;;;20.60;58.61;101523.53;5054855;28;20591;-60
2021/08/18 05:02:34;;;;;;;1.85;1.00;;;;;;;20.61;58.72;101533.16;5054316;28;20024;-61
2021/08/18 05:05:01;;;;;;;2.80;1.00;;;;;;;20.57;59.06;101524.66;5055004;28;20032;-61
2021/08/18 05:07:27;;;;;;;2.85;1.20;;;;;;;20.60;58.73;101531.47;5055062;28;20025;-61
2021/08/18 05:09:52;;;;;;;2.05;1.10;;;;;;;20.60;58.84;101524.41;5053991;28;20036;-62
2021/08/18 05:12:20;;;;;;;2.10;1.10;;;;;;;20.59;58.69;101525.34;5053666;28;20029;-61
2021/08/18 05:14:45;;;;;;;2.05;1.10;;;;;;;20.59;58.80;101521.88;5054374;28;20286;-62
2021/08/18 05:17:11;;;;;;;2.70;1.30;;;;;;;20.60;58.75;101523.53;5054113;28;20017;-61
2021/08/18 05:19:36;;;;;;;2.80;1.20;;;;;;;20.58;58.84;101514.88;5055063;28;20025;-61
2021/08/18 05:22:04;;;;;;;2.55;1.00;;;;;;;20.60;58.63;101518.25;5054571;28;20017;-61
2021/08/18 05:24:30;;;;;;;3.53;1.23;;;;;;;20.57;58.98;101513.19;5053866;28;20021;-61
2021/08/18 05:26:59;;;;;;;2.10;1.17;;;;;;;20.60;58.79;101512.94;5054326;28;20404;-61
2021/08/18 05:29:24;;;;;;;3.63;1.30;;;;;;;20.60;58.88;101513.81;5054478;28;20484;-61
2021/08/18 05:31:52;;;;;;;2.17;1.20;;;;;;;20.60;58.92;101512.94;5053468;28;20037;-61
2021/08/18 05:34:18;;;;;;;2.05;1.25;;;;;;;20.60;58.80;101512.94;5054325;28;20033;-61
2021/08/18 05:36:43;;;;;;;2.40;1.00;;;;;;;20.59;58.72;101511.28;5054209;28;20079;-61
2021/08/18 05:39:08;;;;;;;3.67;1.27;;;;;;;20.58;58.93;101510.41;5053636;28;20021;-62
2021/08/18 05:41:34;;;;;;;2.10;1.20;;;;;;;20.59;58.82;101519.22;5054239;28;20028;-61
2021/08/18 05:43:59;;;;;;;2.75;1.30;;;;;;;20.60;58.89;101512.94;5053877;28;20332;-61
2021/08/18 05:46:24;;;;;;;2.70;1.40;;;;;;;20.58;58.91;101515.72;5053688;28;20028;-62
2021/08/18 05:48:53;;;;;;;3.05;1.25;;;;;;;20.60;58.96;101518.25;5053833;28;20511;-61
2021/08/18 05:51:18;;;;;;;2.47;1.17;;;;;;;20.53;58.85;101498.53;5053698;28;20021;-62
2021/08/18 05:53:49;;;;;;;2.70;1.42;;;;;;;20.56;58.82;101507.06;5053775;28;20143;-61
2021/08/18 05:56:14;;;;;;;2.00;1.20;;;;;;;20.58;58.74;101506.94;5053836;28;20056;-61
2021/08/18 05:58:40;;;;;;;2.25;1.20;;;;;;;20.56;59.06;101512.34;5053300;28;20126;-61
2021/08/18 06:01:05;;;;;;;2.85;1.45;;;;;;;20.59;58.99;101517.41;5053689;28;20499;-61
2021/08/18 06:03:30;;;;;;;3.57;1.50;;;;;;;20.58;58.94;101514.88;5053686;28;20035;-61
2021/08/18 06:05:55;;;;;;;2.50;1.40;;;;;;;20.59;58.93;101522.69;5052777;28;20281;-61
2021/08/18 06:08:20;;;;;;;2.20;1.30;;;;;;;20.59;59.13;101517.41;5053693;28;20738;-61
2021/08/18 06:10:46;;;;;;;4.28;1.40;;;;;;;20.59;58.93;101516.56;5053186;28;20845;-60
2021/08/18 06:13:12;;;;;;;3.87;1.50;;;;;;;20.59;59.13;101516.56;5052733;28;20025;-61
2021/08/18 06:15:38;;;;;;;2.67;1.33;;;;;;;20.58;58.88;101523.66;5053363;28;20340;-61
2021/08/18 06:18:03;;;;;;;2.77;1.23;;;;;;;20.58;58.98;101520.19;5053358;28;20028;-62
2021/08/18 06:20:31;;;;;;;2.85;1.60;;;;;;;20.57;59.19;101513.19;5052798;28;20767;-62
2021/08/18 06:22:58;;;;;;;3.60;1.55;;;;;;;20.58;59.27;101523.66;5053147;28;20052;-61
2021/08/18 06:25:23;;;;;;;2.47;1.45;;;;;;;20.58;59.29;101520.19;5052844;28;20391;-62
2021/08/18 06:27:50;;;;;;;2.20;1.10;;;;;;;20.57;59.09;101519.34;5052275;28;20028;-62
2021/08/18 06:30:15;;;;;;;2.15;1.30;;;;;;;20.58;59.14;101517.53;5053298;28;20060;-62
2021/08/18 06:32:40;;;;;;;2.53;1.42;;;;;;;20.60;59.30;101520.88;5053285;28;20063;-61
2021/08/18 06:35:06;;;;;;;2.17;1.23;;;;;;;20.57;59.32;101522.00;5052044;28;20039;-62
2021/08/18 06:37:34;;;;;;;3.95;1.50;;;;;;;20.61;59.32;101519.94;5053138;28;20025;-60
2021/08/18 06:39:59;;;;;;;2.67;1.38;;;;;;;20.62;59.37;101521.63;5052603;28;20033;-62
2021/08/18 06:42:25;;;;;;;2.92;1.42;;;;;;;20.65;59.53;101521.41;5052586;28;20086;-61
2021/08/18 06:44:50;;;;;;;2.90;1.60;;;;;;;20.65;59.55;101524.88;5052466;28;20032;-62
2021/08/18 06:47:19;;;;;;;2.95;1.50;;;;;;;20.65;59.53;101521.41;5052811;28;20021;-61
2021/08/18 06:49:44;;;;;;;3.35;1.52;;;;;;;20.66;59.64;101525.72;5050997;28;20060;-62
2021/08/18 06:52:10;;;;;;;2.67;1.50;;;;;;;20.64;59.72;101522.38;5051927;28;20041;-61
2021/08/18 06:54:39;;;;;;;2.70;1.50;;;;;;;20.66;59.74;101531.00;5052305;28;20032;-62
2021/08/18 06:57:04;;;;;;;4.38;1.52;;;;;;;20.68;59.79;101528.25;5051777;28;20409;-60
2021/08/18 06:59:30;;;;;;;2.30;1.30;;;;;;;20.68;59.81;101534.41;5052089;28;20025;-61
2021/08/18 07:01:55;;;;;;;2.58;1.50;;;;;;;20.68;59.75;101533.53;5051564;28;20035;-62
2021/08/18 07:04:21;;;;;;;5.00;2.22;;;;;;;20.69;59.79;101525.47;5052249;28;20017;-62
2021/08/18 07:06:46;;;;;;;3.38;1.50;;;;;;;20.68;59.69;101530.88;5051869;28;20028;-60
2021/08/18 07:09:12;;;;;;;4.30;1.60;;;;;;;20.69;59.81;101527.28;5051586;28;20025;-59
2021/08/18 07:11:37;;;;;;;3.05;1.55;;;;;;;20.71;59.87;101530.66;5052809;28;20044;-60
2021/08/18 07:14:04;;;;;;;4.35;1.75;;;;;;;20.71;60.12;101534.16;5052110;28;20507;-61
2021/08/18 07:16:31;;;;;;;4.30;2.15;;;;;;;20.72;59.85;101532.34;5051726;28;20469;-63
2021/08/18 07:18:57;;;;;;;4.07;2.00;;;;;;;20.72;60.12;101533.16;5052195;28;20473;-63
2021/08/18 07:21:30;;;;;;;4.00;1.90;;;;;;;20.71;60.19;101531.50;5069212;28;20384;-63
2021/08/18 07:23:57;;;;;;;6.13;2.00;;;;;;;20.77;60.42;101535.44;5052145;28;20108;-63
2021/08/18 07:26:27;;;;;;;4.18;1.90;;;;;;;20.77;60.62;101536.28;5052613;28;20025;-61
2021/08/18 07:28:54;;;;;;;3.45;1.92;;;;;;;20.79;60.40;101541.44;5052437;28;20021;-62
2021/08/18 07:31:20;;;;;;;3.70;1.83;;;;;;;20.80;60.53;101541.31;5052053;28;20024;-61
2021/08/18 07:33:45;;;;;;;4.22;1.90;;;;;;;20.79;60.48;101536.16;5052036;28;20021;-64
2021/08/18 07:36:10;;;;;;;5.13;1.92;;;;;;;20.82;60.48;101544.72;5054015;28;20100;-63
2021/08/18 07:38:36;;;;;;;3.28;1.73;;;;;;;20.79;60.34;101530.84;5057024;28;20021;-65
2021/08/18 07:41:04;;;;;;;3.38;1.73;;;;;;;20.81;60.42;101531.59;5057017;28;20079;-64
2021/08/18 07:43:30;;;;;;;3.95;2.10;;;;;;;20.85;60.33;101543.59;5056905;28;20021;-63
2021/08/18 07:45:55;;;;;;;5.28;1.80;;;;;;;20.86;60.43;101537.34;5056167;28;20025;-61
2021/08/18 07:48:21;;;;;;;4.22;1.83;;;;;;;20.85;60.49;101538.31;5057857;28;20075;-62
2021/08/18 07:50:46;;;;;;;4.28;1.92;;;;;;;20.87;60.48;101540.81;5057654;28;20045;-62
2021/08/18 07:53:14;;;;;;;3.72;1.85;;;;;;;20.87;60.63;101538.19;5056345;28;20115;-61
2021/08/18 07:55:40;;;;;;;3.85;1.80;;;;;;;20.86;60.48;101542.66;5056761;28;20025;-62
2021/08/18 07:58:05;;;;;;;5.80;2.30;;;;;;;20.84;60.47;101536.63;5056703;28;20032;-61
2021/08/18 08:00:31;;;;;;;4.93;2.20;;;;;;;20.88;60.68;101545.16;5056930;28;20017;-63
2021/08/18 08:02:57;;;;;;;3.88;1.90;;;;;;;20.90;60.66;101551.19;5055328;28;20033;-64
2021/08/18 08:05:22;;;;;;;5.38;2.10;;;;;;;20.87;60.20;101541.69;5055779;28;20036;-61
2021/08/18 08:07:47;;;;;;;5.35;1.90;;;;;;;20.88;60.36;101542.53;5055755;28;20025;-61
2021/08/18 08:10:13;;;;;;;4.15;2.20;;;;;;;20.89;60.49;101545.03;5056151;28;20017;-62
2021/08/18 08:12:39;;;;;;;3.90;2.22;;;;;;;20.88;60.56;101540.69;5055622;28;20048;-61
2021/08/18 08:15:06;;;;;;;5.18;2.75;;;;;;;20.87;60.79;101539.03;5055713;28;20492;-63
2021/08/18 08:17:37;;;;;;;5.07;3.10;;;;;;;20.93;60.62;101543.81;5056129;28;20032;-61
2021/08/18 08:20:04;;;;;;;5.60;3.33;;;;;;;20.94;60.57;101542.84;5055183;28;20029;-61
2021/08/18 08:22:29;;;;;;;9.70;3.38;;;;;;;20.92;60.68;101538.63;5056060;28;20025;-60
2021/08/18 08:24:55;;;;;;;6.32;3.30;;;;;;;20.95;60.91;101541.91;5055986;28;20159;-62
2021/08/18 08:27:20;;;;;;;5.43;3.80;;;;;;;20.93;61.00;101535.03;5055141;28;20025;-61
2021/08/18 08:29:45;;;;;;;6.50;3.70;;;;;;;20.92;61.12;101534.19;5055848;28;20273;-62
2021/08/18 08:32:11;;;;;;;5.03;3.33;;;;;;;20.93;61.20;101535.03;5056008;28;20274;-63
2021/08/18 08:34:37;;;;;;;6.78;3.58;;;;;;;20.92;61.13;101536.84;5054887;28;20115;-63
2021/08/18 08:37:02;;;;;;;7.55;3.70;;;;;;;20.95;61.25;101544.53;5055769;28;20025;-64
2021/08/18 08:39:28;;;;;;;7.05;3.65;;;;;;;20.96;61.36;101540.06;5056094;28;20078;-63
2021/08/18 08:41:53;;;;;;;5.93;3.97;;;;;;;20.95;61.29;101541.91;5054921;28;20025;-62
2021/08/18 08:44:20;;;;;;;7.75;3.75;;;;;;;20.93;61.50;101545.63;5055715;28;20029;-61
2021/08/18 08:46:51;;;;;;;6.55;4.10;;;;;;;20.95;61.41;101552.50;5054889;28;20021;-63
2021/08/18 08:49:18;;;;;;;6.18;3.50;;;;;;;20.96;61.42;101551.50;5054701;28;20088;-60
2021/08/18 08:51:51;;;;;;;6.05;3.53;;;;;;;20.97;61.24;101558.50;5056299;28;20453;-63
2021/08/18 08:54:17;;;;;;;6.95;3.58;;;;;;;20.97;61.41;101547.06;5056921;28;20037;-63
2021/08/18 08:56:46;;;;;;;6.55;3.53;;;;;;;20.92;61.27;101555.38;5055800;28;20021;-65
2021/08/18 08:59:12;;;;;;;5.68;3.63;;;;;;;20.95;61.40;101547.19;5057022;28;20071;-64
2021/08/18 09:02:02;;;;;;;7.72;3.75;;;;;;;20.97;61.17;101553.19;5062002;28;20076;-65
2021/08/18 09:04:36;;;;;;;6.65;3.38;;;;;;;20.93;61.09;101557.06;5058140;28;20033;-64
2021/08/18 09:07:13;;;;;;;7.18;3.70;;;;;;;20.96;61.05;101567.41;5057802;28;20491;-63
2021/08/18 09:09:41;;;;;;;5.57;3.60;;;;;;;20.95;61.29;101563.09;5066352;28;20029;-63
2021/08/18 09:12:13;;;;;;;7.28;3.33;;;;;;;20.93;61.25;101565.00;5068378;28;20380;-63
2021/08/18 09:14:42;;;;;;;5.82;3.50;;;;;;;20.95;61.29;101565.75;5069382;28;20040;-64
2021/08/18 09:17:28;;;;;;;6.97;3.95;;;;;;;20.95;61.27;101564.88;5069334;28;20175;-62
2021/08/18 09:20:08;;;;;;;5.00;3.30;;;;;;;20.88;60.97;101556.59;5071293;28;20060;-61
2021/08/18 09:22:39;;;;;;;6.72;3.42;;;;;;;20.92;61.28;101563.34;5071923;28;20033;-62
2021/08/18 09:25:14;;;;;;;5.78;3.40;;;;;;;20.93;61.20;101572.13;5072029;28;20380;-63
2021/08/18 09:28:01;;;;;;;;;;;;;;;;;;;;;
2021/08/18 09:30:32;;;;;;;4.63;2.92;;;;;;;20.91;61.16;101566.94;5062127;28;20037;-63
2021/08/18 09:33:09;;;;;;;5.03;3.40;;;;;;;20.92;61.20;101565.13;5064362;28;20393;-65
2021/08/18 09:35:34;;;;;;;6.18;3.05;;;;;;;20.90;61.14;101559.94;5058283;28;20050;-63
2021/08/18 09:38:02;;;;;;;5.07;3.80;;;;;;;20.86;61.12;101553.25;5058733;28;20354;-62
2021/08/18 09:40:35;;;;;;;5.47;3.45;;;;;;;20.90;61.06;101564.41;5059145;28;20025;-62
2021/08/18 09:43:14;;;;;;;6.07;3.67;;;;;;;20.90;61.14;101557.31;5058225;28;20013;-63
2021/08/18 09:46:01;;;;;;;5.30;3.33;;;;;;;20.89;61.05;101553.00;5055684;28;20122;-61
2021/08/18 09:48:28;;;;;;;6.80;3.20;;;;;;;20.89;61.27;101553.00;5054258;28;20032;-63
2021/08/18 09:50:56;;;;;;;5.70;3.60;;;;;;;20.89;61.08;101547.69;5053553;28;20037;-61
2021/08/18 09:53:26;;;;;;;4.60;2.92;;;;;;;20.91;61.16;101544.91;5054590;28;20033;-62
2021/08/18 09:56:08;;;;;;;4.82;3.38;;;;;;;20.92;61.15;101534.19;5054962;28;20036;-62
2021/08/18 09:58:38;;;;;;;5.28;2.95;;;;;;;20.93;60.98;101532.38;5054424;28;20033;-61
2021/08/18 10:01:10;;;;;;;8.35;3.55;;;;;;;20.93;61.41;101527.06;5054772;28;20344;-64
2021/08/18 10:03:36;;;;;;;6.07;3.17;;;;;;;20.95;61.29;101535.72;5055374;28;20099;-59
2021/08/18 10:06:03;;;;;;;5.93;3.22;;;;;;;20.96;61.38;101538.25;5053419;28;20354;-60
2021/08/18 10:08:32;;;;;;;5.60;3.25;;;;;;;20.90;61.28;101522.84;5054365;28;20040;-59
2021/08/18 10:10:57;;;;;;;5.47;3.35;;;;;;;20.98;61.43;101524.88;5053917;28;20457;-60
2021/08/18 10:13:23;;;;;;;6.13;3.22;;;;;;;20.97;61.17;101529.34;5053651;28;20056;-60
2021/08/18 10:15:50;;;;;;;6.22;3.17;;;;;;;20.97;61.44;101524.06;5053825;28;20111;-59
2021/08/18 10:19:01;;;;;;;4.80;2.88;;;;;;;20.98;61.51;101523.09;5054721;28;20021;-61
2021/08/18 10:21:29;;;;;;;5.05;3.38;;;;;;;21.00;61.40;101513.19;5054036;28;20025;-60
2021/08/18 10:24:07;;;;;;;5.18;3.22;;;;;;;21.01;61.22;101516.69;5054781;28;20385;-61
2021/08/18 10:26:39;;;;;;;4.95;2.85;;;;;;;21.01;61.29;101514.03;5054072;28;20021;-60
2021/08/18 10:29:13;;;;;;;7.20;3.30;;;;;;;21.04;61.33;101518.25;5055287;28;20060;-62
2021/08/18 10:31:48;;;;;;;5.53;3.20;;;;;;;21.05;61.39;101519.94;5054513;28;20025;-63
2021/08/18 10:34:22;;;;;;;5.95;3.40;;;;;;;21.04;61.46;101515.59;5053092;28;20035;-60
2021/08/18 10:36:54;;;;;;;5.00;3.25;;;;;;;21.04;61.45;101519.06;5052969;28;20021;-62
2021/08/18 10:39:19;;;;;;;4.93;3.30;;;;;;;21.05;61.33;101519.94;5053437;28;20041;-61
2021/08/18 10:41:57;;;;;;;5.55;3.45;;;;;;;21.04;61.40;101508.47;5052870;28;20042;-61
2021/08/18 10:44:46;;;;;;;6.10;3.13;;;;;;;21.04;61.68;101502.34;5056273;28;20385;-62
2021/08/18 10:47:16;;;;;;;4.85;3.53;;;;;;;21.04;61.73;101510.28;5056262;28;20024;-63
2021/08/18 10:49:47;;;;;;;6.00;3.58;;;;;;;20.99;61.85;101500.91;5055226;28;20556;-61
2021/08/18 10:52:45;;;;;;;5.50;3.95;;;;;;;21.02;61.97;101507.78;5057112;28;20107;-62
2021/08/18 10:55:13;;;;;;;5.47;3.72;;;;;;;21.00;61.96;101501.78;5054181;28;20037;-60
2021/08/18 10:57:40;;;;;;;6.82;4.40;;;;;;;21.00;62.15;101505.25;5053680;28;20072;-60
2021/08/18 11:00:12;;;;;;;6.43;4.13;;;;;;;21.01;62.19;101504.28;5054505;28;20100;-61
2021/08/18 11:03:01;;;;;;;5.75;4.10;;;;;;;21.00;62.15;101507.91;5053853;28;20032;-60
2021/08/18 11:05:42;;;;;;;5.70;4.18;;;;;;;21.00;62.11;101505.25;5055544;28;20103;-60
2021/08/18 11:08:16;;;;;;;6.05;4.65;;;;;;;21.00;62.06;101501.78;5052327;28;20041;-59
2021/08/18 11:10:54;;;;;;;8.57;4.43;;;;;;;20.96;61.79;101495.03;5053191;28;20024;-63
2021/08/18 11:13:52;;;;;;;6.03;4.35;;;;;;;21.01;61.87;101506.09;5054569;28;20029;-63
2021/08/18 11:16:31;;;;;;;7.47;4.68;;;;;;;21.01;61.96;101503.44;5052897;28;20602;-61
2021/08/18 11:18:59;;;;;;;7.95;4.78;;;;;;;21.00;61.98;101499.13;5052470;28;20017;-62
2021/08/18 11:21:45;;;;;;;8.25;6.50;;;;;;;20.98;61.99;101491.28;5053283;28;20036;-63
2021/08/18 11:24:12;;;;;;;6.72;4.65;;;;;;;20.96;61.93;101487.09;5051350;28;20044;-61
2021/08/18 11:26:43;;;;;;;7.97;5.18;;;;;;;20.97;61.83;101496.72;5052757;28;20033;-61
2021/08/18 11:29:15;;;;;;;6.80;4.70;;;;;;;20.97;61.63;101494.06;5051912;28;20033;-60
2021/08/18 11:31:48;;;;;;;7.18;4.95;;;;;;;20.95;61.70;101496.84;5052561;28;20024;-61